createdAt,value
2022-11-12T00:01:12.602Z,4.83
2022-11-12T00:03:40.247Z,5.00
2022-11-12T00:06:08.119Z,5.60
2022-11-12T00:08:37.496Z,5.27
2022-11-12T00:11:05.912Z,5.33
2022-11-12T00:13:33.625Z,5.77
2022-11-12T00:16:01.525Z,6.63
2022-11-12T00:18:29.416Z,6.57
2022-11-12T00:20:57.226Z,7.23
2022-11-12T00:23:24.907Z,7.17
2022-11-12T00:26:01.024Z,7.57
2022-11-12T00:28:32.202Z,7.37
2022-11-12T00:31:08.473Z,7.73
2022-11-12T00:33:36.156Z,7.07
2022-11-12T00:36:03.834Z,6.73
2022-11-12T00:38:31.859Z,6.73
2022-11-12T00:41:01.763Z,7.23
2022-11-12T00:43:29.495Z,8.13
2022-11-12T00:45:57.176Z,8.70
2022-11-12T00:48:25.065Z,7.93
2022-11-12T00:50:53.103Z,7.83
2022-11-12T00:53:20.796Z,8.00
2022-11-12T00:55:48.457Z,7.57
2022-11-12T00:58:17.475Z,7.20
2022-11-12T01:03:32.670Z,7.20
2022-11-12T01:06:03.662Z,7.40
2022-11-12T01:08:31.353Z,6.33
2022-11-12T01:11:06.285Z,6.47
2022-11-12T01:13:37.804Z,6.33
2022-11-12T01:16:10.395Z,6.30
2022-11-12T01:18:38.080Z,6.37
2022-11-12T01:21:07.525Z,5.73
2022-11-12T01:23:36.162Z,6.40
2022-11-12T01:26:05.372Z,5.70
2022-11-12T01:28:33.112Z,6.10
2022-11-12T01:31:12.942Z,5.57
2022-11-12T01:33:40.620Z,4.83
2022-11-12T01:36:09.013Z,4.93
2022-11-12T01:38:36.685Z,4.73
2022-11-12T01:41:04.915Z,4.30
2022-11-12T01:43:32.776Z,4.13
2022-11-12T01:46:01.240Z,4.20
2022-11-12T01:48:34.480Z,4.33
2022-11-12T01:51:03.751Z,3.93
2022-11-12T01:53:32.837Z,4.17
2022-11-12T01:56:01.409Z,3.97
2022-11-12T01:58:30.931Z,4.37
2022-11-12T02:03:45.839Z,4.13
2022-11-12T02:06:15.440Z,3.60
2022-11-12T02:08:43.515Z,3.77
2022-11-12T02:11:14.624Z,3.23
2022-11-12T02:14:01.899Z,3.40
2022-11-12T02:16:32.756Z,3.57
2022-11-12T02:19:02.407Z,3.47
2022-11-12T02:21:31.769Z,3.67
2022-11-12T02:24:00.992Z,3.50
2022-11-12T02:26:31.725Z,3.07
2022-11-12T02:28:59.574Z,3.00
2022-11-12T02:31:27.239Z,2.80
2022-11-12T02:33:54.908Z,2.83
2022-11-12T02:36:23.030Z,2.93
2022-11-12T02:38:52.084Z,2.80
2022-11-12T02:41:19.824Z,3.00
2022-11-12T02:43:47.570Z,2.50
2022-11-12T02:46:15.572Z,2.67
2022-11-12T02:48:43.343Z,2.70
2022-11-12T02:51:11.105Z,2.90
2022-11-12T02:53:38.824Z,2.67
2022-11-12T02:56:08.513Z,2.37
2022-11-12T02:58:36.171Z,2.80
2022-11-12T03:03:48.745Z,2.30
2022-11-12T03:06:18.476Z,2.73
2022-11-12T03:08:46.195Z,2.40
2022-11-12T03:11:16.810Z,2.07
2022-11-12T03:13:44.950Z,2.20
2022-11-12T03:16:12.563Z,2.73
2022-11-12T03:18:40.246Z,2.43
2022-11-12T03:21:08.098Z,2.60
2022-11-12T03:23:35.808Z,2.47
2022-11-12T03:26:04.716Z,2.70
2022-11-12T03:28:33.948Z,2.40
2022-11-12T03:31:02.611Z,3.00
2022-11-12T03:33:30.284Z,2.40
2022-11-12T03:35:57.948Z,2.73
2022-11-12T03:38:26.018Z,2.57
2022-11-12T03:40:53.891Z,2.70
2022-11-12T03:43:21.646Z,2.17
2022-11-12T03:45:50.748Z,2.53
2022-11-12T03:48:18.387Z,2.13
2022-11-12T03:50:46.064Z,2.17
2022-11-12T03:53:13.739Z,2.13
2022-11-12T03:55:41.421Z,2.13
2022-11-12T03:58:09.105Z,1.70
2022-11-12T04:00:36.733Z,2.17
2022-11-12T04:03:05.778Z,2.20
2022-11-12T04:05:51.056Z,2.03
2022-11-12T04:08:39.218Z,1.80
2022-11-12T04:11:09.352Z,1.90
2022-11-12T04:13:38.362Z,1.80
2022-11-12T04:16:26.244Z,1.70
2022-11-12T04:19:15.610Z,1.90
2022-11-12T04:21:57.451Z,1.80
2022-11-12T04:24:44.566Z,1.93
2022-11-12T04:27:14.645Z,1.80
2022-11-12T04:30:00.239Z,1.60
2022-11-12T04:32:28.577Z,1.97
2022-11-12T04:34:58.212Z,1.77
2022-11-12T04:37:27.389Z,1.70
2022-11-12T04:39:55.161Z,1.60
2022-11-12T04:42:40.373Z,2.10
2022-11-12T04:45:08.769Z,2.00
2022-11-12T04:47:38.188Z,1.60
2022-11-12T04:50:10.064Z,1.80
2022-11-12T04:52:37.704Z,1.80
2022-11-12T04:55:06.064Z,1.90
2022-11-12T04:57:33.757Z,1.67
2022-11-12T05:00:01.420Z,1.77
2022-11-12T05:02:29.061Z,1.87
2022-11-12T05:04:56.699Z,1.80
2022-11-12T05:07:25.691Z,2.00
2022-11-12T05:09:53.345Z,1.80
2022-11-12T05:12:20.995Z,2.00
2022-11-12T05:14:48.633Z,1.60
2022-11-12T05:17:16.295Z,1.87
2022-11-12T05:19:44.195Z,2.03
2022-11-12T05:22:33.387Z,2.20
2022-11-12T05:25:00.355Z,1.87
2022-11-12T05:27:28.075Z,1.90
2022-11-12T05:29:55.728Z,2.40
2022-11-12T05:32:23.411Z,2.27
2022-11-12T05:34:51.079Z,2.20
2022-11-12T05:37:18.780Z,2.13
2022-11-12T05:39:46.429Z,2.57
2022-11-12T05:42:15.460Z,2.40
2022-11-12T05:44:43.199Z,2.50
2022-11-12T05:47:10.878Z,2.80
2022-11-12T05:49:38.557Z,2.37
2022-11-12T05:52:06.362Z,2.53
2022-11-12T05:54:34.075Z,2.60
2022-11-12T05:57:01.715Z,2.83
2022-11-12T05:59:30.728Z,2.70
2022-11-12T06:01:58.484Z,2.77
2022-11-12T06:04:26.258Z,2.50
2022-11-12T06:06:53.927Z,2.30
2022-11-12T06:09:21.649Z,2.87
2022-11-12T06:11:49.371Z,2.80
2022-11-12T06:14:17.050Z,2.60
2022-11-12T06:16:46.076Z,2.93
2022-11-12T06:19:13.756Z,2.67
2022-11-12T06:21:41.392Z,2.43
2022-11-12T06:24:09.569Z,2.50
2022-11-12T06:26:37.994Z,2.60
2022-11-12T06:29:05.784Z,2.43
2022-11-12T06:31:33.435Z,2.77
2022-11-12T06:34:03.231Z,2.70
2022-11-12T06:36:30.908Z,2.53
2022-11-12T06:38:58.567Z,2.10
2022-11-12T06:41:26.235Z,2.17
2022-11-12T06:43:53.891Z,1.90
2022-11-12T06:46:21.508Z,1.87
2022-11-12T06:48:49.200Z,2.47
2022-11-12T06:51:20.393Z,2.50
2022-11-12T06:53:48.797Z,2.40
2022-11-12T06:56:16.820Z,2.40
2022-11-12T06:58:44.772Z,2.33
2022-11-12T07:01:15.492Z,1.90
2022-11-12T07:03:44.100Z,1.97
2022-11-12T07:06:13.338Z,1.60
2022-11-12T07:08:42.866Z,1.90
2022-11-12T07:11:11.353Z,1.77
2022-11-12T07:13:39.331Z,1.87
2022-11-12T07:16:08.775Z,1.73
2022-11-12T07:18:36.694Z,1.57
2022-11-12T07:21:06.947Z,1.70
2022-11-12T07:23:36.524Z,1.40
2022-11-12T07:26:06.621Z,1.47
2022-11-12T07:28:34.342Z,1.57
2022-11-12T07:31:04.032Z,1.80
2022-11-12T07:33:32.033Z,1.70
2022-11-12T07:36:01.220Z,2.00
2022-11-12T07:38:29.583Z,1.83
2022-11-12T07:41:01.523Z,1.50
2022-11-12T07:43:31.135Z,2.03
2022-11-12T07:46:00.152Z,1.80
2022-11-12T07:48:31.347Z,2.00
2022-11-12T07:51:02.762Z,1.80
2022-11-12T07:53:30.897Z,1.93
2022-11-12T07:55:59.870Z,1.90
2022-11-12T07:58:28.593Z,1.80
2022-11-12T08:00:57.828Z,1.83
2022-11-12T08:03:25.888Z,1.70
2022-11-12T08:05:53.491Z,2.10
2022-11-12T08:08:21.212Z,1.60
2022-11-12T08:10:48.909Z,1.70
2022-11-12T08:13:16.588Z,1.63
2022-11-12T08:15:49.464Z,1.73
2022-11-12T08:18:21.074Z,1.90
2022-11-12T08:20:48.776Z,1.60
2022-11-12T08:23:16.663Z,1.80
2022-11-12T08:25:44.576Z,1.83
2022-11-12T08:28:12.243Z,1.90
2022-11-12T08:30:39.936Z,1.93
2022-11-12T08:33:07.755Z,1.93
2022-11-12T08:35:39.029Z,2.03
2022-11-12T08:38:07.654Z,1.93
2022-11-12T08:40:35.295Z,1.80
2022-11-12T08:43:04.835Z,1.60
2022-11-12T08:45:33.440Z,1.87
2022-11-12T08:48:01.999Z,1.73
2022-11-12T08:50:30.088Z,2.33
2022-11-12T08:53:02.708Z,2.60
2022-11-12T08:55:30.905Z,2.90
2022-11-12T08:58:02.025Z,2.77
2022-11-12T09:00:30.062Z,2.60
2022-11-12T09:02:59.497Z,2.40
2022-11-12T09:05:27.216Z,2.60
2022-11-12T09:08:00.965Z,2.50
2022-11-12T09:10:29.272Z,2.90
2022-11-12T09:12:57.196Z,2.80
2022-11-12T09:15:40.699Z,2.83
2022-11-12T09:18:11.620Z,2.60
2022-11-12T09:20:39.242Z,2.60
2022-11-12T09:23:09.990Z,2.30
2022-11-12T09:25:38.254Z,2.40
2022-11-12T09:28:10.219Z,2.50
2022-11-12T09:30:38.452Z,2.60
2022-11-12T09:33:06.168Z,2.37
2022-11-12T09:35:33.843Z,2.47
2022-11-12T09:38:01.723Z,2.40
2022-11-12T09:40:41.685Z,2.60
2022-11-12T09:43:18.413Z,2.60
2022-11-12T09:46:00.267Z,2.73
2022-11-12T09:48:37.638Z,2.50
2022-11-12T09:51:07.723Z,2.50
2022-11-12T09:53:43.020Z,2.80
2022-11-12T09:56:15.248Z,2.63
2022-11-12T09:58:42.935Z,2.60
2022-11-12T10:01:15.132Z,3.10
2022-11-12T10:03:50.202Z,3.30
2022-11-12T10:06:20.109Z,3.83
2022-11-12T10:08:52.204Z,3.10
2022-11-12T10:11:54.572Z,2.97
2022-11-12T10:14:32.954Z,2.67
2022-11-12T10:17:07.749Z,2.60
2022-11-12T10:19:45.937Z,3.03
2022-11-12T10:22:22.931Z,2.83
2022-11-12T10:24:50.795Z,2.60
2022-11-12T10:27:21.791Z,2.67
2022-11-12T10:29:53.264Z,2.30
2022-11-12T10:32:20.909Z,3.00
2022-11-12T10:34:48.575Z,2.50
2022-11-12T10:37:19.321Z,3.37
2022-11-12T10:39:47.735Z,2.97
2022-11-12T10:42:17.500Z,3.13
2022-11-12T10:44:46.784Z,3.33
2022-11-12T10:47:21.252Z,3.40
2022-11-12T10:50:03.313Z,3.67
2022-11-12T10:52:31.028Z,3.00
2022-11-12T10:55:06.688Z,3.30
2022-11-12T10:57:34.408Z,3.30
2022-11-12T11:00:17.912Z,3.27
2022-11-12T11:02:50.628Z,3.50
2022-11-12T11:05:30.573Z,2.90
2022-11-12T11:07:58.410Z,2.80
2022-11-12T11:10:28.261Z,2.90
2022-11-12T11:13:19.678Z,3.10
2022-11-12T11:16:02.286Z,2.77
2022-11-12T11:18:30.883Z,2.80
2022-11-12T11:21:04.790Z,2.83
2022-11-12T11:23:35.692Z,2.70
2022-11-12T11:26:14.438Z,2.97
2022-11-12T11:28:47.399Z,3.30
2022-11-12T11:31:20.564Z,3.27
2022-11-12T11:33:51.835Z,3.07
2022-11-12T11:36:23.180Z,3.33
2022-11-12T11:38:59.086Z,3.20
2022-11-12T11:41:40.291Z,3.00
2022-11-12T11:44:16.356Z,2.90
2022-11-12T11:46:58.977Z,3.03
2022-11-12T11:49:47.390Z,3.47
2022-11-12T11:52:33.752Z,3.23
2022-11-12T11:55:10.930Z,3.23
2022-11-12T11:57:44.712Z,3.47
2022-11-12T12:00:16.808Z,3.10
2022-11-12T12:03:05.395Z,3.90
2022-11-12T12:05:40.892Z,2.93
2022-11-12T12:08:11.247Z,3.43
2022-11-12T12:11:06.796Z,2.93
2022-11-12T12:13:41.142Z,3.30
2022-11-12T12:16:33.248Z,2.90
2022-11-12T12:19:09.384Z,2.40
2022-11-12T12:21:39.923Z,2.60
2022-11-12T12:24:14.079Z,2.60
2022-11-12T12:26:45.513Z,2.53
2022-11-12T12:29:15.740Z,3.27
2022-11-12T12:31:47.303Z,3.00
2022-11-12T12:34:21.772Z,3.20
2022-11-12T12:36:53.576Z,3.23
2022-11-12T12:39:26.824Z,3.63
2022-11-12T12:41:57.689Z,2.90
2022-11-12T12:44:45.711Z,3.10
2022-11-12T12:47:14.345Z,2.83
2022-11-12T12:49:45.072Z,2.50
2022-11-12T12:52:14.615Z,2.53
2022-11-12T12:54:59.522Z,1.90
2022-11-12T12:57:33.048Z,1.77
2022-11-12T13:00:33.989Z,1.57
2022-11-12T13:03:02.012Z,1.37
2022-11-12T13:05:32.305Z,1.77
2022-11-12T13:08:03.955Z,1.93
2022-11-12T13:10:56.122Z,1.97
2022-11-12T13:13:35.255Z,2.20
2022-11-12T13:16:03.796Z,2.40
2022-11-12T13:19:00.192Z,2.23
2022-11-12T13:21:30.363Z,2.50
2022-11-12T13:24:10.765Z,2.30
2022-11-12T13:26:50.902Z,2.43
2022-11-12T13:29:42.907Z,2.00
2022-11-12T13:32:29.717Z,2.00
2022-11-12T13:35:21.569Z,1.83
2022-11-12T13:37:52.834Z,1.90
2022-11-12T13:40:27.988Z,1.70
2022-11-12T13:42:57.323Z,1.77
2022-11-12T13:45:26.564Z,1.90
2022-11-12T13:47:54.440Z,2.10
2022-11-12T13:50:23.981Z,2.00
2022-11-12T13:52:53.000Z,2.17
2022-11-12T13:55:22.179Z,2.47
2022-11-12T13:57:50.972Z,2.80
2022-11-12T14:00:24.882Z,3.03
2022-11-12T14:02:55.476Z,3.43
2022-11-12T14:05:25.126Z,3.40
2022-11-12T14:08:24.039Z,3.40
2022-11-12T14:11:02.635Z,3.07
2022-11-12T14:13:43.955Z,3.17
2022-11-12T14:16:20.075Z,4.57
2022-11-12T14:19:02.315Z,5.83
2022-11-12T14:21:30.647Z,5.83
2022-11-12T14:23:59.679Z,5.67
2022-11-12T14:26:38.102Z,5.10
2022-11-12T14:29:06.262Z,4.60
2022-11-12T14:31:34.229Z,4.37
2022-11-12T14:34:23.080Z,3.87
2022-11-12T14:36:52.704Z,3.80
2022-11-12T14:39:21.879Z,3.50
2022-11-12T14:41:50.955Z,3.67
2022-11-12T14:44:21.371Z,3.47
2022-11-12T14:46:50.768Z,3.03
2022-11-12T14:49:22.883Z,3.27
2022-11-12T14:51:55.201Z,3.17
2022-11-12T14:54:28.889Z,3.53
2022-11-12T14:56:56.578Z,2.77
2022-11-12T14:59:24.321Z,3.57
2022-11-12T15:02:29.433Z,3.47
2022-11-12T15:05:01.306Z,3.40
2022-11-12T15:07:30.847Z,3.30
2022-11-12T15:09:59.889Z,3.50
2022-11-12T15:12:29.922Z,3.47
2022-11-12T15:15:09.651Z,3.53
2022-11-12T15:17:37.555Z,3.90
2022-11-12T15:20:06.807Z,4.80
2022-11-12T15:22:35.148Z,4.67
2022-11-12T15:25:21.232Z,5.33
2022-11-12T15:27:49.541Z,6.53
2022-11-12T15:30:20.896Z,8.27
2022-11-12T15:32:48.532Z,9.03
2022-11-12T15:35:33.619Z,9.73
2022-11-12T15:38:03.187Z,9.30
2022-11-12T15:40:33.203Z,9.40
2022-11-12T15:43:02.216Z,8.67
2022-11-12T15:45:29.848Z,8.40
2022-11-12T15:47:57.520Z,10.30
2022-11-12T15:50:26.015Z,11.60
2022-11-12T15:52:53.719Z,12.77
2022-11-12T15:55:21.582Z,16.60
2022-11-12T15:57:52.497Z,20.23
2022-11-12T16:00:22.103Z,22.10
2022-11-12T16:05:24.978Z,20.03
2022-11-12T16:07:52.780Z,19.57
2022-11-12T16:10:20.751Z,19.33
2022-11-12T16:12:58.545Z,18.40
2022-11-12T16:15:26.907Z,17.40
2022-11-12T16:17:55.944Z,15.80
2022-11-12T16:20:25.449Z,14.93
2022-11-12T16:22:53.584Z,14.57
2022-11-12T16:25:21.719Z,12.80
2022-11-12T16:27:55.703Z,13.40
2022-11-12T16:30:25.431Z,12.83
2022-11-12T16:32:53.256Z,20.43
2022-11-12T16:35:21.261Z,32.97
2022-11-12T16:37:49.844Z,38.67
2022-11-12T16:40:19.584Z,34.30
2022-11-12T16:42:47.261Z,29.07
2022-11-12T16:45:17.958Z,25.60
2022-11-12T16:47:47.239Z,21.57
2022-11-12T16:50:17.206Z,17.80
2022-11-12T16:52:44.884Z,16.40
2022-11-12T16:55:12.572Z,14.47
2022-11-12T16:57:40.810Z,13.43
2022-11-12T17:00:12.425Z,12.73
2022-11-12T17:02:45.324Z,12.70
2022-11-12T17:05:17.672Z,12.63
2022-11-12T17:07:45.514Z,14.23
2022-11-12T17:10:13.236Z,20.73
2022-11-12T17:12:41.103Z,23.47
2022-11-12T17:15:10.185Z,23.60
2022-11-12T17:17:37.895Z,21.10
2022-11-12T17:20:08.833Z,20.93
2022-11-12T17:22:36.728Z,20.70
2022-11-12T17:25:05.014Z,19.97
2022-11-12T17:27:32.743Z,19.73
2022-11-12T17:30:00.391Z,18.73
2022-11-12T17:32:28.147Z,17.13
2022-11-12T17:34:55.808Z,16.57
2022-11-12T17:37:25.312Z,17.87
2022-11-12T17:39:53.116Z,16.60
2022-11-12T17:42:20.800Z,16.43
2022-11-12T17:44:48.931Z,15.47
2022-11-12T17:47:16.610Z,14.93
2022-11-12T17:49:44.951Z,15.90
2022-11-12T17:52:12.604Z,16.07
2022-11-12T17:54:41.638Z,16.17
2022-11-12T17:57:09.340Z,19.13
2022-11-12T17:59:37.027Z,19.53
2022-11-12T18:02:04.736Z,19.20
2022-11-12T18:04:32.479Z,18.77
2022-11-12T18:07:00.293Z,19.13
2022-11-12T18:09:28.104Z,20.17
2022-11-12T18:11:57.664Z,19.63
2022-11-12T18:14:26.057Z,19.73
2022-11-12T18:16:53.749Z,19.23
2022-11-12T18:19:21.634Z,37.97
2022-11-12T18:21:49.404Z,47.47
2022-11-12T18:24:17.611Z,43.77
2022-11-12T18:26:45.298Z,35.40
2022-11-12T18:29:14.408Z,29.07
2022-11-12T18:31:43.416Z,25.20
2022-11-12T18:34:12.244Z,22.63
2022-11-12T18:36:39.919Z,20.00
2022-11-12T18:39:07.705Z,19.37
2022-11-12T18:41:35.427Z,17.77
2022-11-12T18:44:03.314Z,18.57
2022-11-12T18:46:32.384Z,17.37
2022-11-12T18:49:00.098Z,16.27
2022-11-12T18:51:27.784Z,16.47
2022-11-12T18:53:55.489Z,15.43
2022-11-12T18:56:23.220Z,14.67
2022-11-12T18:58:50.884Z,14.33
2022-11-12T19:01:21.417Z,13.87
2022-11-12T19:03:54.143Z,14.70
2022-11-12T19:06:22.388Z,14.37
2022-11-12T19:08:50.083Z,15.53
2022-11-12T19:11:21.586Z,15.93
2022-11-12T19:13:52.712Z,16.23
2022-11-12T19:16:22.707Z,16.70
2022-11-12T19:18:52.472Z,17.53
2022-11-12T19:21:22.338Z,17.20
2022-11-12T19:23:54.047Z,18.53
2022-11-12T19:26:23.111Z,20.17
2022-11-12T19:28:50.850Z,19.77
2022-11-12T19:31:20.164Z,19.67
2022-11-12T19:33:48.328Z,18.90
2022-11-12T19:36:22.062Z,20.07
2022-11-12T19:38:53.748Z,20.13
2022-11-12T19:41:21.439Z,19.97
2022-11-12T19:43:49.077Z,21.57
2022-11-12T19:46:16.972Z,22.40
2022-11-12T19:48:45.049Z,21.90
2022-11-12T19:51:13.765Z,23.13
2022-11-12T19:53:45.345Z,22.17
2022-11-12T19:56:16.919Z,21.23
2022-11-12T19:58:46.274Z,21.23
2022-11-12T20:01:15.899Z,21.53
2022-11-12T20:03:43.840Z,19.37
2022-11-12T20:06:13.839Z,19.03
2022-11-12T20:08:42.907Z,19.63
2022-11-12T20:11:11.014Z,19.43
2022-11-12T20:13:39.167Z,19.57
2022-11-12T20:16:08.111Z,18.97
2022-11-12T20:18:35.879Z,18.53
2022-11-12T20:21:04.804Z,17.87
2022-11-12T20:23:33.674Z,16.47
2022-11-12T20:26:07.274Z,16.13
2022-11-12T20:28:35.215Z,13.60
2022-11-12T20:31:03.896Z,11.10
2022-11-12T20:33:31.768Z,10.60
2022-11-12T20:36:04.602Z,9.67
2022-11-12T20:38:32.332Z,9.23
2022-11-12T20:41:02.621Z,9.10
2022-11-12T20:43:31.618Z,9.50
2022-11-12T20:45:59.473Z,8.90
2022-11-12T20:48:27.363Z,7.77
2022-11-12T20:51:22.553Z,8.13
2022-11-12T20:53:57.404Z,6.60
2022-11-12T20:56:27.655Z,6.70
2022-11-12T20:58:57.044Z,6.13
2022-11-12T21:01:26.017Z,6.30
2022-11-12T21:03:53.896Z,6.13
2022-11-12T21:06:23.668Z,6.43
2022-11-12T21:08:51.679Z,6.73
2022-11-12T21:11:21.281Z,7.17
2022-11-12T21:13:49.014Z,7.27
2022-11-12T21:16:18.048Z,7.23
2022-11-12T21:18:45.703Z,8.00
2022-11-12T21:21:14.920Z,8.13
2022-11-12T21:23:44.467Z,8.67
2022-11-12T21:26:13.948Z,7.60
2022-11-12T21:28:43.519Z,7.00
2022-11-12T21:31:12.928Z,7.20
2022-11-12T21:33:42.123Z,7.83
2022-11-12T21:36:15.813Z,6.80
2022-11-12T21:38:44.038Z,7.33
2022-11-12T21:41:13.637Z,8.40
2022-11-12T21:43:43.115Z,7.87
2022-11-12T21:46:11.687Z,8.10
2022-11-12T21:48:39.359Z,7.57
2022-11-12T21:51:11.056Z,7.10
2022-11-12T21:53:38.923Z,7.53
2022-11-12T21:56:08.581Z,8.03
2022-11-12T21:58:37.220Z,7.17
2022-11-12T22:01:09.312Z,7.47
2022-11-12T22:03:44.259Z,7.97
2022-11-12T22:06:13.600Z,8.33
2022-11-12T22:08:41.895Z,7.47
2022-11-12T22:11:10.929Z,6.87
2022-11-12T22:13:40.215Z,7.10
2022-11-12T22:16:09.273Z,7.27
2022-11-12T22:18:37.364Z,7.30
2022-11-12T22:21:06.947Z,6.87
2022-11-12T22:23:36.834Z,6.93
2022-11-12T22:26:05.292Z,6.97
2022-11-12T22:28:34.270Z,7.60
2022-11-12T22:31:05.903Z,6.40
2022-11-12T22:33:33.821Z,7.33
2022-11-12T22:36:05.159Z,6.43
2022-11-12T22:38:38.327Z,7.03
2022-11-12T22:41:07.920Z,6.30
2022-11-12T22:43:36.669Z,6.77
2022-11-12T22:46:06.153Z,7.30
2022-11-12T22:48:33.977Z,7.43
2022-11-12T22:51:02.102Z,7.13
2022-11-12T22:53:30.361Z,7.40
2022-11-12T22:56:04.053Z,7.27
2022-11-12T22:58:31.801Z,7.87
2022-11-12T23:00:59.532Z,7.13
2022-11-12T23:06:18.472Z,7.03
2022-11-12T23:08:46.419Z,6.57
2022-11-12T23:11:17.049Z,6.57
2022-11-12T23:13:45.132Z,5.93
2022-11-12T23:16:14.968Z,6.00
2022-11-12T23:18:42.997Z,5.57
2022-11-12T23:21:13.065Z,5.50
2022-11-12T23:23:40.930Z,6.07
2022-11-12T23:26:12.285Z,5.77
2022-11-12T23:28:41.549Z,6.10
2022-11-12T23:31:12.203Z,6.00
2022-11-12T23:33:40.067Z,5.63
2022-11-12T23:36:09.523Z,5.90
2022-11-12T23:38:37.301Z,5.77
2022-11-12T23:41:06.069Z,5.40
2022-11-12T23:43:34.085Z,4.93
2022-11-12T23:46:03.134Z,5.23
2022-11-12T23:48:31.184Z,4.77
2022-11-12T23:51:04.534Z,5.30
2022-11-12T23:53:35.547Z,5.10
2022-11-12T23:56:03.847Z,4.90
2022-11-12T23:58:32.083Z,5.40
